createdAt,value
2022-08-20T00:02:16.834Z,94978.41
2022-08-20T00:04:45.926Z,94980.75
2022-08-20T00:07:15.246Z,94973.44
2022-08-20T00:09:43.851Z,94969.38
2022-08-20T00:12:13.483Z,94973.69
2022-08-20T00:14:42.085Z,94974.69
2022-08-20T00:17:11.913Z,94979.06
2022-08-20T00:19:40.467Z,94984.09
2022-08-20T00:22:09.026Z,94978.88
2022-08-20T00:24:37.381Z,94983.38
2022-08-20T00:27:05.955Z,94982.22
2022-08-20T00:29:34.312Z,94987.38
2022-08-20T00:32:02.848Z,94977.81
2022-08-20T00:34:32.632Z,94979.13
2022-08-20T00:37:01.015Z,94991.00
2022-08-20T00:39:29.432Z,94984.66
2022-08-20T00:41:57.824Z,94987.38
2022-08-20T00:44:26.349Z,94996.19
2022-08-20T00:46:55.792Z,94965.47
2022-08-20T00:49:28.117Z,94993.19
2022-08-20T00:52:02.310Z,94988.28
2022-08-20T00:54:36.687Z,94986.22
2022-08-20T00:57:09.932Z,94987.56
2022-08-20T00:59:41.879Z,94992.56
2022-08-20T01:02:17.610Z,94992.16
2022-08-20T01:04:49.162Z,94937.59
2022-08-20T01:07:20.654Z,94983.03
2022-08-20T01:09:58.174Z,94978.78
2022-08-20T01:12:29.105Z,94990.19
2022-08-20T01:15:00.130Z,94990.22
2022-08-20T01:17:32.631Z,94997.59
2022-08-20T01:20:06.236Z,95001.28
2022-08-20T01:22:56.012Z,94931.59
2022-08-20T01:25:31.966Z,95001.00
2022-08-20T01:28:02.671Z,94992.47
2022-08-20T01:30:33.146Z,94979.31
2022-08-20T01:33:02.522Z,95003.34
2022-08-20T01:35:31.292Z,95002.97
2022-08-20T01:37:59.764Z,94998.06
2022-08-20T01:40:45.733Z,94997.47
2022-08-20T01:43:15.973Z,94996.22
2022-08-20T01:45:45.880Z,94987.84
2022-08-20T01:48:19.136Z,94981.53
2022-08-20T01:50:56.713Z,94978.56
2022-08-20T01:53:33.625Z,94977.38
2022-08-20T01:56:03.026Z,94941.00
2022-08-20T01:58:33.477Z,94966.72
2022-08-20T02:01:01.872Z,94981.75
2022-08-20T02:03:34.823Z,94909.97
2022-08-20T02:06:06.529Z,94983.44
2022-08-20T02:08:35.056Z,94978.25
2022-08-20T02:11:03.472Z,94977.81
2022-08-20T02:13:33.311Z,94928.59
2022-08-20T02:16:01.777Z,94973.66
2022-08-20T02:18:30.090Z,94981.47
2022-08-20T02:20:58.577Z,94983.03
2022-08-20T02:23:27.038Z,94982.81
2022-08-20T02:25:55.714Z,94982.34
2022-08-20T02:28:24.173Z,94981.41
2022-08-20T02:30:55.496Z,94992.22
2022-08-20T02:33:24.678Z,94989.66
2022-08-20T02:35:56.635Z,94961.84
2022-08-20T02:38:25.512Z,94976.28
2022-08-20T02:40:54.248Z,94973.75
2022-08-20T02:43:22.597Z,94975.31
2022-08-20T02:45:51.734Z,94967.94
2022-08-20T02:48:23.353Z,94940.19
2022-08-20T02:50:54.373Z,94968.31
2022-08-20T02:53:23.178Z,94972.25
2022-08-20T02:55:51.980Z,94984.66
2022-08-20T02:58:21.347Z,94973.47
2022-08-20T03:00:51.044Z,94983.47
2022-08-20T03:03:22.899Z,94972.97
2022-08-20T03:05:54.891Z,94973.53
2022-08-20T03:08:24.708Z,94905.03
2022-08-20T03:10:53.748Z,94988.44
2022-08-20T03:13:22.855Z,94983.16
2022-08-20T03:15:56.603Z,94981.41
2022-08-20T03:18:31.803Z,94986.34
2022-08-20T03:21:00.272Z,94989.16
2022-08-20T03:23:28.900Z,94994.16
2022-08-20T03:25:57.321Z,95001.75
2022-08-20T03:28:25.780Z,94995.25
2022-08-20T03:30:56.639Z,94975.91
2022-08-20T03:33:25.400Z,94945.53
2022-08-20T03:35:55.346Z,95008.50
2022-08-20T03:38:32.320Z,94907.03
2022-08-20T03:41:02.284Z,95018.75
2022-08-20T03:43:31.253Z,95017.31
2022-08-20T03:45:59.759Z,95020.38
2022-08-20T03:48:28.428Z,95017.31
2022-08-20T03:51:00.929Z,95020.31
2022-08-20T03:53:31.723Z,95026.31
2022-08-20T03:56:04.521Z,95023.63
2022-08-20T03:58:36.517Z,95027.47
2022-08-20T04:01:06.796Z,95032.44
2022-08-20T04:03:35.660Z,95023.91
2022-08-20T04:06:05.783Z,95014.44
2022-08-20T04:08:34.646Z,95009.25
2022-08-20T04:11:03.155Z,94874.53
2022-08-20T04:13:32.302Z,94985.66
2022-08-20T04:16:04.008Z,95019.63
2022-08-20T04:18:33.181Z,94977.19
2022-08-20T04:21:01.837Z,94447.19
2022-08-20T04:23:32.178Z,94975.53
2022-08-20T04:26:01.608Z,94943.31
2022-08-20T04:28:30.192Z,94874.41
2022-08-20T04:31:01.236Z,95011.53
2022-08-20T04:33:33.802Z,95013.19
2022-08-20T04:36:06.411Z,94997.09
2022-08-20T04:38:47.880Z,95028.13
2022-08-20T04:41:22.358Z,95020.72
2022-08-20T04:43:53.188Z,95025.44
2022-08-20T04:46:23.721Z,95024.91
2022-08-20T04:48:52.235Z,94941.84
2022-08-20T04:51:23.136Z,94838.44
2022-08-20T04:53:54.556Z,95021.63
2022-08-20T04:56:24.705Z,95018.50
2022-08-20T04:58:54.495Z,95010.09
2022-08-20T05:01:24.312Z,94925.44
2022-08-20T05:03:55.083Z,94858.53
2022-08-20T05:06:25.990Z,94983.31
2022-08-20T05:08:56.597Z,94999.88
2022-08-20T05:11:33.168Z,94966.31
2022-08-20T05:14:03.819Z,94954.66
2022-08-20T05:16:38.113Z,95009.50
2022-08-20T05:19:08.921Z,95009.81
2022-08-20T05:21:37.872Z,95010.72
2022-08-20T05:24:10.299Z,95010.16
2022-08-20T05:26:38.981Z,95011.88
2022-08-20T05:29:08.039Z,95017.38
2022-08-20T05:31:38.544Z,94874.97
2022-08-20T05:34:10.349Z,95015.97
2022-08-20T05:36:39.908Z,95019.09
2022-08-20T05:39:10.557Z,95008.19
2022-08-20T05:41:39.258Z,94978.47
2022-08-20T05:44:11.279Z,95002.47
2022-08-20T05:46:41.069Z,95000.47
2022-08-20T05:49:09.789Z,94999.72
2022-08-20T05:51:38.806Z,95005.03
2022-08-20T05:54:08.308Z,94993.31
2022-08-20T05:56:38.350Z,94993.91
2022-08-20T05:59:09.671Z,94994.63
2022-08-20T06:01:39.871Z,94996.41
2022-08-20T06:04:26.273Z,94992.97
2022-08-20T06:06:57.052Z,94992.09
2022-08-20T06:09:30.678Z,94994.78
2022-08-20T06:12:02.425Z,94998.69
2022-08-20T06:14:31.354Z,94982.72
2022-08-20T06:17:05.600Z,94992.88
2022-08-20T06:19:35.133Z,94994.72
2022-08-20T06:22:18.317Z,94998.88
2022-08-20T06:24:52.695Z,94993.22
2022-08-20T06:27:22.882Z,94987.94
2022-08-20T06:29:52.084Z,94983.16
2022-08-20T06:32:32.235Z,94923.31
2022-08-20T06:35:03.706Z,94985.50
2022-08-20T06:37:33.956Z,94989.13
2022-08-20T06:40:06.172Z,94985.97
2022-08-20T06:42:36.104Z,94992.50
2022-08-20T06:45:06.035Z,94986.94
2022-08-20T06:47:35.404Z,94987.50
2022-08-20T06:50:03.779Z,94984.38
2022-08-20T06:52:52.253Z,94988.25
2022-08-20T06:55:21.046Z,94942.56
2022-08-20T06:57:58.211Z,94977.38
2022-08-20T07:00:27.847Z,94980.69
2022-08-20T07:02:56.472Z,94978.94
2022-08-20T07:05:25.000Z,94973.47
2022-08-20T07:07:53.444Z,94975.78
2022-08-20T07:10:24.844Z,94976.50
2022-08-20T07:12:54.753Z,94970.25
2022-08-20T07:15:25.897Z,94967.09
2022-08-20T07:18:00.863Z,94966.53
2022-08-20T07:20:30.604Z,94971.00
2022-08-20T07:22:59.084Z,94959.44
2022-08-20T07:25:27.821Z,94957.53
2022-08-20T07:28:01.909Z,94956.69
2022-08-20T07:30:57.064Z,94954.88
2022-08-20T07:33:28.204Z,94955.06
2022-08-20T07:35:57.432Z,94957.41
2022-08-20T07:38:28.174Z,94958.47
2022-08-20T07:40:58.937Z,94950.28
2022-08-20T07:43:29.433Z,94952.34
2022-08-20T07:46:01.259Z,94947.06
2022-08-20T07:48:32.031Z,94944.59
2022-08-20T07:51:03.071Z,94942.25
2022-08-20T07:53:35.871Z,94953.81
2022-08-20T07:56:08.217Z,94942.59
2022-08-20T07:58:39.860Z,94940.28
2022-08-20T08:01:10.817Z,94943.19
2022-08-20T08:03:49.922Z,94940.50
2022-08-20T08:06:29.486Z,94842.50
2022-08-20T08:09:02.529Z,94925.13
2022-08-20T08:11:32.486Z,94919.50
2022-08-20T08:14:02.566Z,94910.88
2022-08-20T08:16:32.738Z,94927.84
2022-08-20T08:19:02.116Z,94881.13
2022-08-20T08:21:32.292Z,94912.50
2022-08-20T08:24:00.760Z,94908.47
2022-08-20T08:26:29.587Z,94911.56
2022-08-20T08:28:58.432Z,94905.91
2022-08-20T08:31:28.408Z,94855.53
2022-08-20T08:33:56.901Z,94895.00
2022-08-20T08:36:27.412Z,94896.94
2022-08-20T08:38:56.749Z,94893.38
2022-08-20T08:41:31.536Z,94876.00
2022-08-20T08:44:06.141Z,94887.63
2022-08-20T08:46:41.237Z,94890.41
2022-08-20T08:49:13.901Z,94884.56
2022-08-20T08:51:44.310Z,94880.19
2022-08-20T08:54:17.693Z,94881.00
2022-08-20T08:56:49.751Z,94874.59
2022-08-20T08:59:20.241Z,94870.81
2022-08-20T09:01:54.244Z,94872.09
2022-08-20T09:04:29.266Z,94872.31
2022-08-20T09:06:57.722Z,94867.63
2022-08-20T09:09:29.152Z,94868.13
2022-08-20T09:12:03.155Z,94855.81
2022-08-20T09:14:31.496Z,94851.25
2022-08-20T09:17:01.308Z,94852.16
2022-08-20T09:19:29.849Z,94854.75
2022-08-20T09:21:58.439Z,94840.91
2022-08-20T09:24:27.097Z,94800.09
2022-08-20T09:26:55.402Z,94844.38
2022-08-20T09:29:23.841Z,94845.38
2022-08-20T09:31:52.200Z,94832.94
2022-08-20T09:34:22.373Z,94835.63
2022-08-20T09:36:50.786Z,94829.75
2022-08-20T09:39:19.214Z,94824.09
2022-08-20T09:41:47.594Z,94828.94
2022-08-20T09:44:15.913Z,94836.59
2022-08-20T09:46:44.316Z,94824.38
2022-08-20T09:49:12.717Z,94828.56
2022-08-20T09:51:42.468Z,94822.09
2022-08-20T09:54:10.957Z,94822.75
2022-08-20T09:56:39.433Z,94821.59
2022-08-20T09:59:08.834Z,94822.53
2022-08-20T10:01:37.364Z,94808.44
2022-08-20T10:04:06.089Z,94814.22
2022-08-20T10:06:37.713Z,94822.09
2022-08-20T10:09:08.044Z,94817.34
2022-08-20T10:11:36.396Z,94791.09
2022-08-20T10:14:05.068Z,94805.72
2022-08-20T10:16:33.580Z,94783.53
2022-08-20T10:19:02.113Z,94796.00
2022-08-20T10:21:34.309Z,94793.97
2022-08-20T10:24:05.272Z,94794.31
2022-08-20T10:26:35.172Z,94787.25
2022-08-20T10:29:03.553Z,94775.53
2022-08-20T10:31:31.927Z,94770.22
2022-08-20T10:34:00.356Z,94770.69
2022-08-20T10:36:28.876Z,94766.72
2022-08-20T10:38:57.341Z,94773.50
2022-08-20T10:41:25.721Z,94766.50
2022-08-20T10:43:55.461Z,94764.78
2022-08-20T10:46:23.876Z,94747.78
2022-08-20T10:48:52.384Z,94759.19
2022-08-20T10:51:20.783Z,94747.25
2022-08-20T10:54:00.860Z,94750.78
2022-08-20T10:56:29.556Z,94703.72
2022-08-20T10:58:59.381Z,94740.16
2022-08-20T11:01:31.334Z,94741.13
2022-08-20T11:04:01.583Z,94743.69
2022-08-20T11:06:29.993Z,94733.63
2022-08-20T11:08:58.388Z,94733.50
2022-08-20T11:11:26.837Z,94736.63
2022-08-20T11:13:55.202Z,94736.81
2022-08-20T11:16:26.341Z,94738.63
2022-08-20T11:18:54.754Z,94727.25
2022-08-20T11:21:23.146Z,94726.47
2022-08-20T11:23:51.533Z,94717.44
2022-08-20T11:26:23.548Z,94701.00
2022-08-20T11:28:52.113Z,94708.44
2022-08-20T11:31:20.564Z,94704.16
2022-08-20T11:33:50.441Z,94693.72
2022-08-20T11:36:18.873Z,94679.28
2022-08-20T11:38:47.296Z,94677.28
2022-08-20T11:41:15.933Z,94679.69
2022-08-20T11:43:59.447Z,94669.97
2022-08-20T11:46:33.881Z,94668.88
2022-08-20T11:49:03.869Z,94668.44
2022-08-20T11:51:39.074Z,94671.09
2022-08-20T11:54:18.574Z,94658.44
2022-08-20T11:56:47.029Z,94663.25
2022-08-20T11:59:15.509Z,94655.91
2022-08-20T12:02:02.391Z,94654.97
2022-08-20T12:04:33.925Z,94639.00
2022-08-20T12:07:13.864Z,94642.66
2022-08-20T12:09:50.602Z,94643.91
2022-08-20T12:12:22.490Z,94598.56
2022-08-20T12:14:50.838Z,94637.28
2022-08-20T12:17:24.031Z,94595.25
2022-08-20T12:19:56.178Z,94640.25
2022-08-20T12:22:25.604Z,94560.41
2022-08-20T12:24:54.980Z,94619.78
2022-08-20T12:27:26.859Z,94609.47
2022-08-20T12:29:57.561Z,94618.69
2022-08-20T12:32:27.782Z,94608.66
2022-08-20T12:34:57.644Z,94609.66
2022-08-20T12:37:27.830Z,94623.41
2022-08-20T12:39:57.915Z,94614.34
2022-08-20T12:42:27.150Z,94619.38
2022-08-20T12:44:55.608Z,94609.03
2022-08-20T12:47:26.332Z,94603.13
2022-08-20T12:49:56.846Z,94599.31
2022-08-20T12:52:27.060Z,94543.03
2022-08-20T12:54:56.517Z,94573.91
2022-08-20T12:57:29.233Z,94589.59
2022-08-20T12:59:59.019Z,94597.38
2022-08-20T13:02:28.001Z,94580.72
2022-08-20T13:04:58.288Z,94579.50
2022-08-20T13:07:30.128Z,94583.81
2022-08-20T13:10:00.022Z,94584.06
2022-08-20T13:12:29.955Z,94553.34
2022-08-20T13:14:58.317Z,94562.00
2022-08-20T13:17:37.975Z,94567.28
2022-08-20T13:20:10.926Z,94496.63
2022-08-20T13:22:41.052Z,94557.19
2022-08-20T13:25:11.497Z,94552.13
2022-08-20T13:27:42.390Z,94546.81
2022-08-20T13:30:13.503Z,94548.97
2022-08-20T13:32:42.220Z,94543.97
2022-08-20T13:35:12.699Z,94545.91
2022-08-20T13:37:44.091Z,94543.50
2022-08-20T13:40:14.015Z,94531.94
2022-08-20T13:42:42.542Z,94531.94
2022-08-20T13:45:12.065Z,94549.38
2022-08-20T13:47:42.175Z,94549.34
2022-08-20T13:50:13.384Z,94553.44
2022-08-20T13:52:43.692Z,94546.78
2022-08-20T13:55:14.360Z,94550.94
2022-08-20T13:57:43.857Z,94537.38
2022-08-20T14:00:15.951Z,94536.03
2022-08-20T14:02:44.465Z,94530.94
2022-08-20T14:05:14.597Z,94516.22
2022-08-20T14:07:50.318Z,94515.47
2022-08-20T14:10:24.429Z,94521.66
2022-08-20T14:12:53.057Z,94523.72
2022-08-20T14:15:21.624Z,94518.81
2022-08-20T14:17:53.355Z,94504.38
2022-08-20T14:20:25.983Z,94488.84
2022-08-20T14:22:59.622Z,94503.72
2022-08-20T14:25:28.838Z,94515.91
2022-08-20T14:27:57.776Z,94490.78
2022-08-20T14:30:28.769Z,94493.75
2022-08-20T14:32:57.864Z,94494.41
2022-08-20T14:35:26.677Z,94484.91
2022-08-20T14:37:56.733Z,94491.53
2022-08-20T14:40:28.074Z,94475.09
2022-08-20T14:42:57.253Z,94487.19
2022-08-20T14:45:25.817Z,94493.41
2022-08-20T14:47:57.235Z,94424.16
2022-08-20T14:50:27.638Z,94499.19
2022-08-20T14:52:57.191Z,94481.13
2022-08-20T14:55:29.274Z,94506.81
2022-08-20T14:57:57.893Z,94500.94
2022-08-20T15:00:29.127Z,94495.09
2022-08-20T15:02:58.296Z,94499.19
2022-08-20T15:05:27.227Z,94503.34
2022-08-20T15:07:59.428Z,94480.28
2022-08-20T15:10:32.864Z,94503.66
2022-08-20T15:13:02.657Z,94488.50
2022-08-20T15:15:31.436Z,94498.88
2022-08-20T15:18:01.834Z,94479.38
2022-08-20T15:20:33.343Z,94498.06
2022-08-20T15:23:02.549Z,94495.03
2022-08-20T15:25:37.071Z,94495.03
2022-08-20T15:28:08.838Z,94500.50
2022-08-20T15:30:41.990Z,94500.22
2022-08-20T15:33:11.654Z,94449.13
2022-08-20T15:35:43.698Z,94427.13
2022-08-20T15:38:13.094Z,94429.34
2022-08-20T15:40:43.647Z,94488.50
2022-08-20T15:43:12.525Z,94435.59
2022-08-20T15:45:45.332Z,94483.25
2022-08-20T15:48:16.839Z,94427.34
2022-08-20T15:51:27.646Z,94483.00
2022-08-20T15:54:01.189Z,94379.47
2022-08-20T15:56:54.989Z,94462.84
2022-08-20T15:59:55.473Z,94465.38
2022-08-20T16:02:47.892Z,94465.84
2022-08-20T16:05:25.971Z,94472.56
2022-08-20T16:08:06.397Z,94468.78
2022-08-20T16:10:47.223Z,94469.91
2022-08-20T16:13:28.585Z,94466.44
2022-08-20T16:16:01.004Z,94470.63
2022-08-20T16:18:33.806Z,94476.06
2022-08-20T16:21:04.013Z,94462.59
2022-08-20T16:23:36.513Z,94474.63
2022-08-20T16:26:15.922Z,94470.41
2022-08-20T16:28:54.762Z,94424.53
2022-08-20T16:31:29.729Z,94487.56
2022-08-20T16:34:25.725Z,94486.88
2022-08-20T16:37:03.497Z,94487.81
2022-08-20T16:39:39.170Z,94496.41
2022-08-20T16:42:11.448Z,94481.66
2022-08-20T16:44:48.277Z,94496.97
2022-08-20T16:47:21.188Z,94500.63
2022-08-20T16:49:54.969Z,94501.47
2022-08-20T16:52:29.414Z,94505.41
2022-08-20T16:55:01.864Z,94496.47
2022-08-20T16:57:30.712Z,94517.66
2022-08-20T17:00:10.654Z,94527.00
2022-08-20T17:02:56.721Z,94525.56
2022-08-20T17:05:29.325Z,94539.38
2022-08-20T17:08:04.119Z,94538.16
2022-08-20T17:10:37.885Z,94539.34
2022-08-20T17:13:20.901Z,94526.78
2022-08-20T17:15:58.375Z,94550.91
2022-08-20T17:18:29.086Z,94554.19
2022-08-20T17:21:02.025Z,94559.09
2022-08-20T17:23:49.115Z,94561.00
2022-08-20T17:26:29.771Z,94555.44
2022-08-20T17:29:01.479Z,94475.34
2022-08-20T17:31:38.922Z,94544.63
2022-08-20T17:34:16.538Z,94540.28
2022-08-20T17:36:57.158Z,94528.19
2022-08-20T17:39:28.004Z,94548.50
2022-08-20T17:42:05.279Z,94551.44
2022-08-20T17:44:38.257Z,94557.31
2022-08-20T17:47:12.771Z,94555.53
2022-08-20T17:49:54.967Z,94535.59
2022-08-20T17:52:37.784Z,94578.00
2022-08-20T17:55:07.397Z,94585.88
2022-08-20T17:57:41.584Z,94585.53
2022-08-20T18:00:15.651Z,94600.25
2022-08-20T18:02:45.869Z,94618.72
2022-08-20T18:05:20.102Z,94610.81
2022-08-20T18:08:13.638Z,94639.53
2022-08-20T18:10:50.917Z,94641.19
2022-08-20T18:13:21.553Z,94648.56
2022-08-20T18:15:55.080Z,94673.25
2022-08-20T18:18:56.469Z,94698.59
2022-08-20T18:21:57.727Z,94699.59
2022-08-20T18:24:35.292Z,94711.66
2022-08-20T18:27:08.796Z,94687.91
2022-08-20T18:29:42.510Z,94700.28
2022-08-20T18:32:26.175Z,94704.53
2022-08-20T18:35:08.077Z,94763.25
2022-08-20T18:37:36.611Z,94776.53
2022-08-20T18:40:28.963Z,94805.88
2022-08-20T18:42:59.079Z,94832.56
2022-08-20T18:45:32.126Z,94855.94
2022-08-20T18:48:01.903Z,94856.81
2022-08-20T18:50:43.853Z,94873.56
2022-08-20T18:53:18.974Z,94876.72
2022-08-20T18:55:49.400Z,94878.41
2022-08-20T18:58:31.973Z,94871.03
2022-08-20T19:01:03.207Z,94884.25
2022-08-20T19:03:38.643Z,94892.19
2022-08-20T19:06:24.186Z,94880.03
2022-08-20T19:09:00.716Z,94854.81
2022-08-20T19:12:11.482Z,94885.63
2022-08-20T19:14:55.596Z,94884.72
2022-08-20T19:17:38.298Z,94869.91
2022-08-20T19:20:11.833Z,94738.44
2022-08-20T19:22:44.062Z,94874.06
2022-08-20T19:25:23.898Z,94901.81
2022-08-20T19:27:52.724Z,94814.88
2022-08-20T19:30:34.504Z,94896.28
2022-08-20T19:33:03.192Z,94700.22
2022-08-20T19:35:32.333Z,94888.25
2022-08-20T19:38:03.459Z,94882.41
2022-08-20T19:40:35.141Z,94861.88
2022-08-20T19:43:13.408Z,94870.94
2022-08-20T19:45:46.804Z,94864.47
2022-08-20T19:48:29.139Z,94863.91
2022-08-20T19:51:06.684Z,94856.84
2022-08-20T19:53:38.503Z,94849.13
2022-08-20T19:56:12.108Z,94857.81
2022-08-20T19:58:41.541Z,94859.31
2022-08-20T20:01:16.666Z,94846.38
2022-08-20T20:03:57.030Z,94835.56
2022-08-20T20:06:27.064Z,94827.50
2022-08-20T20:09:00.172Z,94838.75
2022-08-20T20:11:35.901Z,94835.09
2022-08-20T20:14:09.115Z,94830.97
2022-08-20T20:16:38.734Z,94837.28
2022-08-20T20:19:26.862Z,94837.16
2022-08-20T20:22:17.339Z,94723.28
2022-08-20T20:24:58.215Z,94826.88
2022-08-20T20:27:28.983Z,94809.75
2022-08-20T20:30:01.540Z,94828.84
2022-08-20T20:32:30.851Z,94842.09
2022-08-20T20:35:01.760Z,94840.81
2022-08-20T20:37:50.732Z,94851.31
2022-08-20T20:40:27.817Z,94846.56
2022-08-20T20:43:02.960Z,94852.81
2022-08-20T20:45:34.668Z,94860.09
2022-08-20T20:48:18.484Z,94863.69
2022-08-20T20:50:48.763Z,94854.69
2022-08-20T20:53:35.076Z,94850.91
2022-08-20T20:56:35.001Z,94831.03
2022-08-20T20:59:06.819Z,94835.44
2022-08-20T21:01:49.391Z,94830.56
2022-08-20T21:04:19.996Z,94852.81
2022-08-20T21:06:48.444Z,94769.03
2022-08-20T21:09:16.990Z,94850.97
2022-08-20T21:11:47.311Z,94836.13
2022-08-20T21:14:16.487Z,94835.28
2022-08-20T21:16:45.615Z,94829.63
2022-08-20T21:19:14.286Z,94829.75
2022-08-20T21:21:43.853Z,94822.91
2022-08-20T21:24:12.762Z,94812.16
2022-08-20T21:26:41.565Z,94800.59
2022-08-20T21:29:14.797Z,94777.41
2022-08-20T21:31:45.700Z,94799.03
2022-08-20T21:34:17.506Z,94799.88
2022-08-20T21:36:46.569Z,94780.97
2022-08-20T21:39:15.190Z,94809.25
2022-08-20T21:41:44.261Z,94804.84
2022-08-20T21:44:22.394Z,94781.19
2022-08-20T21:46:54.734Z,94794.97
2022-08-20T21:49:23.703Z,94807.72
2022-08-20T21:51:53.063Z,94812.13
2022-08-20T21:54:22.631Z,94825.59
2022-08-20T21:57:00.205Z,94770.75
2022-08-20T21:59:30.557Z,94829.13
2022-08-20T22:02:00.685Z,94832.03
2022-08-20T22:04:33.474Z,94824.56
2022-08-20T22:07:04.121Z,94820.22
2022-08-20T22:09:34.020Z,94818.03
2022-08-20T22:12:02.808Z,94801.28
2022-08-20T22:14:33.228Z,94808.81
2022-08-20T22:17:01.659Z,94791.56
2022-08-20T22:19:30.083Z,94789.19
2022-08-20T22:21:58.744Z,94781.38
2022-08-20T22:24:29.461Z,94788.22
2022-08-20T22:26:58.232Z,94787.75
2022-08-20T22:29:26.817Z,94774.31
2022-08-20T22:31:56.699Z,94760.09
2022-08-20T22:34:25.141Z,94762.38
2022-08-20T22:36:55.808Z,94753.41
2022-08-20T22:39:24.181Z,94742.41
2022-08-20T22:41:53.203Z,94746.03
2022-08-20T22:44:21.722Z,94757.56
2022-08-20T22:46:55.164Z,94762.72
2022-08-20T22:49:30.448Z,94771.38
2022-08-20T22:51:58.969Z,94763.22
2022-08-20T22:54:27.525Z,94770.25
2022-08-20T22:56:56.670Z,94779.03
2022-08-20T22:59:25.997Z,94706.25
2022-08-20T23:01:55.129Z,94778.91
2022-08-20T23:04:28.942Z,94769.25
2022-08-20T23:06:58.509Z,94689.06
2022-08-20T23:09:27.736Z,94756.47
2022-08-20T23:11:58.782Z,94775.41
2022-08-20T23:14:27.501Z,94768.75
2022-08-20T23:17:02.427Z,94764.44
2022-08-20T23:19:32.379Z,94763.59
2022-08-20T23:22:00.786Z,94750.66
2022-08-20T23:24:29.175Z,94741.41
2022-08-20T23:26:57.667Z,94759.34
2022-08-20T23:29:27.080Z,94764.63
2022-08-20T23:31:56.355Z,94761.13
2022-08-20T23:34:25.100Z,94770.72
2022-08-20T23:36:57.047Z,94781.81
2022-08-20T23:39:26.585Z,94790.06
2022-08-20T23:41:55.329Z,94785.00
2022-08-20T23:44:27.026Z,94694.09
2022-08-20T23:46:57.158Z,94777.63
2022-08-20T23:49:25.682Z,94803.75
2022-08-20T23:51:55.510Z,94797.66
2022-08-20T23:54:24.036Z,94773.41
2022-08-20T23:56:56.871Z,94772.50
2022-08-20T23:59:26.027Z,94788.41
